createdAt,value
2017-12-06T00:00:05.849Z,9.83
2017-12-06T00:02:32.458Z,10.20
2017-12-06T00:04:59.071Z,10.10
2017-12-06T00:07:25.673Z,9.20
2017-12-06T00:09:52.289Z,9.80
2017-12-06T00:12:24.526Z,10.23
2017-12-06T00:14:56.846Z,9.23
2017-12-06T00:17:23.450Z,9.57
2017-12-06T00:19:50.066Z,9.23
2017-12-06T00:22:16.666Z,9.80
2017-12-06T00:24:43.306Z,10.97
2017-12-06T00:27:09.905Z,10.00
2017-12-06T00:29:36.502Z,9.70
2017-12-06T00:32:03.121Z,10.20
2017-12-06T00:34:29.725Z,10.30
2017-12-06T00:36:56.360Z,10.40
2017-12-06T00:39:22.961Z,10.50
2017-12-06T00:41:49.565Z,9.87
2017-12-06T00:44:16.197Z,10.43
2017-12-06T00:46:42.799Z,10.50
2017-12-06T00:49:09.408Z,10.47
2017-12-06T00:51:36.017Z,10.47
2017-12-06T00:54:02.632Z,10.73
2017-12-06T00:56:29.245Z,11.20
2017-12-06T00:58:55.848Z,10.90
2017-12-06T01:01:22.465Z,10.60
2017-12-06T01:03:49.073Z,11.10
2017-12-06T01:06:15.681Z,10.40
2017-12-06T01:08:42.285Z,11.30
2017-12-06T01:11:08.902Z,11.33
2017-12-06T01:13:35.504Z,11.10
2017-12-06T01:16:02.112Z,11.17
2017-12-06T01:18:28.734Z,11.60
2017-12-06T01:20:55.346Z,10.20
2017-12-06T01:23:21.965Z,11.17
2017-12-06T01:25:48.576Z,11.53
2017-12-06T01:28:15.190Z,11.33
2017-12-06T01:30:41.801Z,11.30
2017-12-06T01:33:08.404Z,10.53
2017-12-06T01:35:35.021Z,11.20
2017-12-06T01:38:01.622Z,11.10
2017-12-06T01:40:28.242Z,11.70
2017-12-06T01:42:54.852Z,11.80
2017-12-06T01:45:21.461Z,11.83
2017-12-06T01:47:48.077Z,12.53
2017-12-06T01:50:14.680Z,11.83
2017-12-06T01:52:41.305Z,11.73
2017-12-06T01:55:07.912Z,11.83
2017-12-06T01:57:34.537Z,12.50
2017-12-06T02:00:01.143Z,12.30
2017-12-06T02:02:27.749Z,11.80
2017-12-06T02:04:54.370Z,12.00
2017-12-06T02:07:20.978Z,12.20
2017-12-06T02:09:47.593Z,12.00
2017-12-06T02:12:14.208Z,11.90
2017-12-06T02:14:40.824Z,12.70
2017-12-06T02:17:07.429Z,12.83
2017-12-06T02:19:34.041Z,12.40
2017-12-06T02:22:00.653Z,13.23
2017-12-06T02:24:27.260Z,12.83
2017-12-06T02:26:53.864Z,12.30
2017-12-06T02:29:20.481Z,12.23
2017-12-06T02:31:47.114Z,12.87
2017-12-06T02:34:13.726Z,13.00
2017-12-06T02:36:40.339Z,12.23
2017-12-06T02:39:06.944Z,11.80
2017-12-06T02:41:39.469Z,13.03
2017-12-06T02:44:11.921Z,12.50
2017-12-06T02:46:38.529Z,11.80
2017-12-06T02:49:05.137Z,12.13
2017-12-06T02:51:31.752Z,12.30
2017-12-06T02:53:58.365Z,12.50
2017-12-06T02:56:24.977Z,12.27
2017-12-06T02:58:51.601Z,12.30
2017-12-06T03:01:18.204Z,13.47
2017-12-06T03:03:44.818Z,12.10
2017-12-06T03:06:11.429Z,12.50
2017-12-06T03:08:38.034Z,12.03
2017-12-06T03:11:04.672Z,12.67
2017-12-06T03:13:31.273Z,12.10
2017-12-06T03:15:57.882Z,11.20
2017-12-06T03:18:24.497Z,12.20
2017-12-06T03:20:51.138Z,12.60
2017-12-06T03:23:17.777Z,11.87
2017-12-06T03:25:44.389Z,12.23
2017-12-06T03:28:11.905Z,12.10
2017-12-06T03:30:38.526Z,12.40
2017-12-06T03:33:05.157Z,11.80
2017-12-06T03:35:31.754Z,11.37
2017-12-06T03:37:58.361Z,12.00
2017-12-06T03:40:25.832Z,12.23
2017-12-06T03:42:52.531Z,11.80
2017-12-06T03:45:19.125Z,11.20
2017-12-06T03:47:45.753Z,12.07
2017-12-06T03:50:12.360Z,13.07
2017-12-06T03:52:38.971Z,12.40
2017-12-06T03:55:05.593Z,11.73
2017-12-06T03:57:32.201Z,11.47
2017-12-06T03:59:58.835Z,12.17
2017-12-06T04:02:25.464Z,12.47
2017-12-06T04:04:52.069Z,10.70
2017-12-06T04:07:18.677Z,11.27
2017-12-06T04:09:45.295Z,12.13
2017-12-06T04:12:11.904Z,12.07
2017-12-06T04:14:38.505Z,12.83
2017-12-06T04:17:05.144Z,11.40
2017-12-06T04:19:31.749Z,11.40
2017-12-06T04:21:58.356Z,11.60
2017-12-06T04:24:24.980Z,11.90
2017-12-06T04:26:51.594Z,11.97
2017-12-06T04:29:18.192Z,11.60
2017-12-06T04:31:44.812Z,12.40
2017-12-06T04:34:11.426Z,12.33
2017-12-06T04:36:38.063Z,11.23
2017-12-06T04:39:04.772Z,12.10
2017-12-06T04:41:31.365Z,12.60
2017-12-06T04:43:57.972Z,11.40
2017-12-06T04:46:24.602Z,12.30
2017-12-06T04:48:51.218Z,11.90
2017-12-06T04:51:17.850Z,12.40
2017-12-06T04:53:44.450Z,12.23
2017-12-06T04:56:11.094Z,11.30
2017-12-06T04:58:37.715Z,12.10
2017-12-06T05:01:04.329Z,11.10
2017-12-06T05:03:30.933Z,11.97
2017-12-06T05:05:57.541Z,11.43
2017-12-06T05:08:24.159Z,11.27
2017-12-06T05:10:50.765Z,10.90
2017-12-06T05:13:17.377Z,10.90
2017-12-06T05:15:44.008Z,11.33
2017-12-06T05:18:10.605Z,11.13
2017-12-06T05:20:37.205Z,10.80
2017-12-06T05:23:03.833Z,11.10
2017-12-06T05:25:30.433Z,10.80
2017-12-06T05:27:57.033Z,10.90
2017-12-06T05:30:23.663Z,10.67
2017-12-06T05:32:50.265Z,10.50
2017-12-06T05:35:16.884Z,10.83
2017-12-06T05:37:43.519Z,11.17
2017-12-06T05:40:10.135Z,12.10
2017-12-06T05:42:36.734Z,10.33
2017-12-06T05:45:03.370Z,10.10
2017-12-06T05:47:29.973Z,10.13
2017-12-06T05:49:56.577Z,10.80
2017-12-06T05:52:23.189Z,11.20
2017-12-06T05:54:49.801Z,11.47
2017-12-06T05:57:16.409Z,11.30
2017-12-06T05:59:43.029Z,10.77
2017-12-06T06:02:09.630Z,11.10
2017-12-06T06:04:36.241Z,11.80
2017-12-06T06:07:02.856Z,11.80
2017-12-06T06:09:29.490Z,12.43
2017-12-06T06:11:56.114Z,11.97
2017-12-06T06:14:22.730Z,11.10
2017-12-06T06:16:49.333Z,13.40
2017-12-06T06:19:15.946Z,12.83
2017-12-06T06:21:42.561Z,11.90
2017-12-06T06:24:09.170Z,11.80
2017-12-06T06:26:35.768Z,11.93
2017-12-06T06:29:02.389Z,11.33
2017-12-06T06:31:29.005Z,11.60
2017-12-06T06:33:55.609Z,11.30
2017-12-06T06:36:22.232Z,12.00
2017-12-06T06:38:48.834Z,11.37
2017-12-06T06:41:15.441Z,11.20
2017-12-06T06:43:42.062Z,10.43
2017-12-06T06:46:08.675Z,11.10
2017-12-06T06:48:35.280Z,10.43
2017-12-06T06:51:01.909Z,11.13
2017-12-06T06:53:28.517Z,11.47
2017-12-06T06:55:55.122Z,11.10
2017-12-06T06:58:21.756Z,11.07
2017-12-06T07:00:48.419Z,11.60
2017-12-06T07:03:15.022Z,11.60
2017-12-06T07:05:41.649Z,12.10
2017-12-06T07:08:08.317Z,10.70
2017-12-06T07:10:34.904Z,11.20
2017-12-06T07:13:01.525Z,12.20
2017-12-06T07:15:28.130Z,11.27
2017-12-06T07:17:54.748Z,10.70
2017-12-06T07:20:21.369Z,11.00
2017-12-06T07:22:47.977Z,10.33
2017-12-06T07:25:14.590Z,10.30
2017-12-06T07:27:41.265Z,10.60
2017-12-06T07:30:07.869Z,10.10
2017-12-06T07:32:34.473Z,10.63
2017-12-06T07:35:01.091Z,10.00
2017-12-06T07:37:27.696Z,10.10
2017-12-06T07:39:54.313Z,10.30
2017-12-06T07:42:20.942Z,10.10
2017-12-06T07:44:47.544Z,10.33
2017-12-06T07:47:14.170Z,10.57
2017-12-06T07:49:40.796Z,10.17
2017-12-06T07:52:07.400Z,9.20
2017-12-06T07:54:34.007Z,10.20
2017-12-06T07:57:00.617Z,10.00
2017-12-06T07:59:27.232Z,9.80
2017-12-06T08:01:53.833Z,9.37
2017-12-06T08:04:20.468Z,9.73
2017-12-06T08:06:47.073Z,10.20
2017-12-06T08:09:13.678Z,10.00
2017-12-06T08:11:40.292Z,9.37
2017-12-06T08:14:06.894Z,9.50
2017-12-06T08:16:33.494Z,9.50
2017-12-06T08:19:00.141Z,9.17
2017-12-06T08:21:26.744Z,8.97
2017-12-06T08:23:53.381Z,10.00
2017-12-06T08:26:19.996Z,9.67
2017-12-06T08:28:46.598Z,9.53
2017-12-06T08:31:13.201Z,9.73
2017-12-06T08:33:39.814Z,9.70
2017-12-06T08:36:06.407Z,8.87
2017-12-06T08:38:33.001Z,9.13
2017-12-06T08:40:59.617Z,9.07
2017-12-06T08:43:26.221Z,8.67
2017-12-06T08:45:52.835Z,9.20
2017-12-06T08:48:19.437Z,8.80
2017-12-06T08:50:46.040Z,9.00
2017-12-06T08:53:12.638Z,8.80
2017-12-06T08:55:39.270Z,8.20
2017-12-06T08:58:05.868Z,9.30
2017-12-06T09:00:32.469Z,7.90
2017-12-06T09:02:59.082Z,7.57
2017-12-06T09:05:25.680Z,7.27
2017-12-06T09:07:52.281Z,7.80
2017-12-06T09:10:18.898Z,7.10
2017-12-06T09:12:45.502Z,7.03
2017-12-06T09:15:12.172Z,7.13
2017-12-06T09:17:38.794Z,7.73
2017-12-06T09:20:05.441Z,7.83
2017-12-06T09:22:32.045Z,7.00
2017-12-06T09:24:58.661Z,6.40
2017-12-06T09:27:25.289Z,6.53
2017-12-06T09:29:51.892Z,6.10
2017-12-06T09:32:18.507Z,6.90
2017-12-06T09:34:45.116Z,6.60
2017-12-06T09:37:11.713Z,6.50
2017-12-06T09:39:38.344Z,6.60
2017-12-06T09:42:04.941Z,7.17
2017-12-06T09:44:31.541Z,6.90
2017-12-06T09:46:58.158Z,5.93
2017-12-06T09:49:24.756Z,7.37
2017-12-06T09:51:51.369Z,7.10
2017-12-06T09:54:17.980Z,6.30
2017-12-06T09:56:44.586Z,7.00
2017-12-06T09:59:11.185Z,6.77
2017-12-06T10:01:37.810Z,6.40
2017-12-06T10:04:04.405Z,6.70
2017-12-06T10:06:31.009Z,6.03
2017-12-06T10:08:57.691Z,6.40
2017-12-06T10:11:24.420Z,6.40
2017-12-06T10:13:51.028Z,7.63
2017-12-06T10:16:17.638Z,6.30
2017-12-06T10:18:44.245Z,6.53
2017-12-06T10:21:10.884Z,5.93
2017-12-06T10:23:37.493Z,5.93
2017-12-06T10:26:04.088Z,6.50
2017-12-06T10:28:30.689Z,6.43
2017-12-06T10:30:57.315Z,6.50
2017-12-06T10:33:23.968Z,5.97
2017-12-06T10:35:50.618Z,6.00
2017-12-06T10:38:17.221Z,5.80
2017-12-06T10:40:44.096Z,6.00
2017-12-06T10:43:10.764Z,6.70
2017-12-06T10:45:37.449Z,6.57
2017-12-06T10:48:04.065Z,6.00
2017-12-06T10:50:30.661Z,6.20
2017-12-06T10:52:57.270Z,5.63
2017-12-06T10:55:23.870Z,6.43
2017-12-06T10:57:50.465Z,6.50
2017-12-06T11:00:17.077Z,6.10
2017-12-06T11:02:43.679Z,6.53
2017-12-06T11:05:10.423Z,6.57
2017-12-06T11:07:37.030Z,6.80
2017-12-06T11:10:03.625Z,6.83
2017-12-06T11:12:30.221Z,6.90
2017-12-06T11:14:56.841Z,6.83
2017-12-06T11:17:23.438Z,6.63
2017-12-06T11:19:50.038Z,6.77
2017-12-06T11:22:16.660Z,6.70
2017-12-06T11:24:43.257Z,6.67
2017-12-06T11:27:09.854Z,6.60
2017-12-06T11:29:36.466Z,6.47
2017-12-06T11:32:03.068Z,7.07
2017-12-06T11:34:29.732Z,6.00
2017-12-06T11:36:56.611Z,6.20
2017-12-06T11:39:23.217Z,6.37
2017-12-06T11:41:50.070Z,6.40
2017-12-06T11:44:16.842Z,6.80
2017-12-06T11:46:43.629Z,6.30
2017-12-06T11:49:10.358Z,7.10
2017-12-06T11:51:39.233Z,5.97
2017-12-06T11:54:06.092Z,6.30
2017-12-06T11:56:33.095Z,5.80
2017-12-06T11:58:59.704Z,6.07
2017-12-06T12:01:26.306Z,5.93
2017-12-06T12:03:52.905Z,6.60
2017-12-06T12:06:19.521Z,6.40
2017-12-06T12:08:46.136Z,6.70
2017-12-06T12:11:12.746Z,6.73
2017-12-06T12:13:39.357Z,5.80
2017-12-06T12:16:05.956Z,5.80
2017-12-06T12:18:32.549Z,5.80
2017-12-06T12:20:59.165Z,6.23
2017-12-06T12:23:25.771Z,5.80
2017-12-06T12:25:52.368Z,5.23
2017-12-06T12:28:18.973Z,5.60
2017-12-06T12:30:45.618Z,6.47
2017-12-06T12:33:12.221Z,5.60
2017-12-06T12:35:38.828Z,5.53
2017-12-06T12:38:05.425Z,5.77
2017-12-06T12:40:32.039Z,5.53
2017-12-06T12:42:58.641Z,6.10
2017-12-06T12:45:25.237Z,5.77
2017-12-06T12:47:51.829Z,5.60
2017-12-06T12:50:18.457Z,5.40
2017-12-06T12:52:45.062Z,5.70
2017-12-06T12:55:11.665Z,5.73
2017-12-06T12:57:38.345Z,5.50
2017-12-06T13:00:04.952Z,5.67
2017-12-06T13:02:31.544Z,6.70
2017-12-06T13:04:58.161Z,5.67
2017-12-06T13:07:24.754Z,5.40
2017-12-06T13:09:51.353Z,5.57
2017-12-06T13:12:17.965Z,5.60
2017-12-06T13:14:44.638Z,5.93
2017-12-06T13:17:11.186Z,5.80
2017-12-06T13:19:37.788Z,5.90
2017-12-06T13:22:04.385Z,4.93
2017-12-06T13:24:30.980Z,5.43
2017-12-06T13:26:57.601Z,5.23
2017-12-06T13:29:24.202Z,5.50
2017-12-06T13:31:50.809Z,5.40
2017-12-06T13:34:17.453Z,5.03
2017-12-06T13:36:44.059Z,5.20
2017-12-06T13:39:10.653Z,5.13
2017-12-06T13:41:37.286Z,5.17
2017-12-06T13:44:03.888Z,5.27
2017-12-06T13:46:30.487Z,5.80
2017-12-06T13:48:57.131Z,5.20
2017-12-06T13:51:23.725Z,5.27
2017-12-06T13:53:50.321Z,5.23
2017-12-06T13:56:16.928Z,5.03
2017-12-06T13:58:43.538Z,5.83
2017-12-06T14:01:10.135Z,5.80
2017-12-06T14:03:36.745Z,5.83
2017-12-06T14:06:03.346Z,6.13
2017-12-06T14:08:29.942Z,5.30
2017-12-06T14:10:56.575Z,6.70
2017-12-06T14:13:23.253Z,5.70
2017-12-06T14:15:49.849Z,5.80
2017-12-06T14:18:16.457Z,5.70
2017-12-06T14:20:43.058Z,5.80
2017-12-06T14:23:09.657Z,5.60
2017-12-06T14:25:36.302Z,6.03
2017-12-06T14:28:02.874Z,5.70
2017-12-06T14:30:29.470Z,5.60
2017-12-06T14:32:56.082Z,5.37
2017-12-06T14:35:22.690Z,5.37
2017-12-06T14:37:49.285Z,5.97
2017-12-06T14:40:15.913Z,5.40
2017-12-06T14:42:42.510Z,5.33
2017-12-06T14:45:09.120Z,5.57
2017-12-06T14:47:35.764Z,5.47
2017-12-06T14:50:02.366Z,5.47
2017-12-06T14:52:28.962Z,6.00
2017-12-06T14:54:55.569Z,5.10
2017-12-06T14:57:22.172Z,5.33
2017-12-06T14:59:48.769Z,6.00
2017-12-06T15:02:15.410Z,5.30
2017-12-06T15:04:41.993Z,5.57
2017-12-06T15:07:08.592Z,5.50
2017-12-06T15:09:35.223Z,5.90
2017-12-06T15:12:01.818Z,5.60
2017-12-06T15:14:28.416Z,5.77
2017-12-06T15:16:55.033Z,6.07
2017-12-06T15:19:21.628Z,5.50
2017-12-06T15:21:48.263Z,5.27
2017-12-06T15:24:14.870Z,5.43
2017-12-06T15:26:41.464Z,5.70
2017-12-06T15:29:08.062Z,5.20
2017-12-06T15:31:34.667Z,5.53
2017-12-06T15:34:01.265Z,6.20
2017-12-06T15:36:27.861Z,5.80
2017-12-06T15:38:54.482Z,5.97
2017-12-06T15:41:21.073Z,5.70
2017-12-06T15:43:47.697Z,5.70
2017-12-06T15:46:14.305Z,6.60
2017-12-06T15:48:40.905Z,6.03
2017-12-06T15:51:07.493Z,5.87
2017-12-06T15:53:34.101Z,5.90
2017-12-06T15:56:00.704Z,6.07
2017-12-06T15:58:27.356Z,5.10
2017-12-06T16:00:53.958Z,5.80
2017-12-06T16:03:20.563Z,5.70
2017-12-06T16:05:47.149Z,5.30
2017-12-06T16:08:13.761Z,7.30
2017-12-06T16:10:40.361Z,6.77
2017-12-06T16:13:06.972Z,6.70
2017-12-06T16:15:33.586Z,5.67
2017-12-06T16:18:00.177Z,5.40
2017-12-06T16:20:26.777Z,5.33
2017-12-06T16:22:53.406Z,5.47
2017-12-06T16:25:20.021Z,5.90
2017-12-06T16:27:46.618Z,5.40
2017-12-06T16:30:13.234Z,5.73
2017-12-06T16:32:40.025Z,5.33
2017-12-06T16:35:12.411Z,6.40
2017-12-06T16:37:39.001Z,7.00
2017-12-06T16:40:05.738Z,6.43
2017-12-06T16:42:32.345Z,6.80
2017-12-06T16:44:58.940Z,6.33
2017-12-06T16:47:25.547Z,6.17
2017-12-06T16:49:52.153Z,6.30
2017-12-06T16:52:18.753Z,5.83
2017-12-06T16:54:45.350Z,5.77
2017-12-06T16:57:11.961Z,7.20
2017-12-06T16:59:38.557Z,6.50
2017-12-06T17:02:05.180Z,6.97
2017-12-06T17:04:31.777Z,7.47
2017-12-06T17:06:58.377Z,7.13
2017-12-06T17:09:24.973Z,7.93
2017-12-06T17:11:51.592Z,7.53
2017-12-06T17:14:18.190Z,7.93
2017-12-06T17:16:44.781Z,7.90
2017-12-06T17:19:11.397Z,8.50
2017-12-06T17:21:37.996Z,8.30
2017-12-06T17:26:29.929Z,8.80
2017-12-06T17:29:02.350Z,9.90
2017-12-06T17:31:34.718Z,11.10
2017-12-06T17:34:01.325Z,10.77
2017-12-06T17:36:27.933Z,9.13
2017-12-06T17:38:54.549Z,8.83
2017-12-06T17:41:21.153Z,9.83
2017-12-06T17:43:47.757Z,9.33
2017-12-06T17:46:14.373Z,9.03
2017-12-06T17:48:40.973Z,8.20
2017-12-06T17:51:07.580Z,8.73
2017-12-06T17:53:34.197Z,8.60
2017-12-06T17:56:00.793Z,8.80
2017-12-06T17:58:27.397Z,8.63
2017-12-06T18:00:54.114Z,9.53
2017-12-06T18:03:20.708Z,9.13
2017-12-06T18:05:48.305Z,8.93
2017-12-06T18:08:14.926Z,8.80
2017-12-06T18:10:41.524Z,9.00
2017-12-06T18:13:08.137Z,9.23
2017-12-06T18:15:35.245Z,8.47
2017-12-06T18:18:01.861Z,10.40
2017-12-06T18:20:28.465Z,9.87
2017-12-06T18:22:55.097Z,9.60
2017-12-06T18:25:21.705Z,10.30
2017-12-06T18:27:48.305Z,9.30
2017-12-06T18:30:14.918Z,9.03
2017-12-06T18:32:41.520Z,10.17
2017-12-06T18:35:08.129Z,10.20
2017-12-06T18:37:34.746Z,9.93
2017-12-06T18:40:01.350Z,10.10
2017-12-06T18:42:27.953Z,10.60
2017-12-06T18:44:54.586Z,9.90
2017-12-06T18:47:21.193Z,10.70
2017-12-06T18:49:47.797Z,10.20
2017-12-06T18:52:14.422Z,11.93
2017-12-06T18:54:41.028Z,10.53
2017-12-06T18:57:07.634Z,10.20
2017-12-06T18:59:34.340Z,9.87
2017-12-06T19:02:00.945Z,10.40
2017-12-06T19:04:27.545Z,11.10
2017-12-06T19:06:54.187Z,16.23
2017-12-06T19:09:20.797Z,12.70
2017-12-06T19:11:47.409Z,10.43
2017-12-06T19:14:14.034Z,11.30
2017-12-06T19:16:40.647Z,11.00
2017-12-06T19:19:07.241Z,11.67
2017-12-06T19:21:33.873Z,12.07
2017-12-06T19:24:00.483Z,10.40
2017-12-06T19:26:27.090Z,11.50
2017-12-06T19:28:54.556Z,10.27
2017-12-06T19:31:21.162Z,10.70
2017-12-06T19:33:47.769Z,10.70
2017-12-06T19:36:14.390Z,10.43
2017-12-06T19:38:41.016Z,11.27
2017-12-06T19:41:07.621Z,12.00
2017-12-06T19:43:34.246Z,11.73
2017-12-06T19:46:00.861Z,11.37
2017-12-06T19:48:27.472Z,12.43
2017-12-06T19:50:54.103Z,11.20
2017-12-06T19:53:20.709Z,12.30
2017-12-06T19:55:47.308Z,12.53
2017-12-06T19:58:13.929Z,11.47
2017-12-06T20:00:40.541Z,12.40
2017-12-06T20:03:07.149Z,11.50
2017-12-06T20:05:33.773Z,12.13
2017-12-06T20:08:00.381Z,11.80
2017-12-06T20:10:27.011Z,11.90
2017-12-06T20:12:53.637Z,11.13
2017-12-06T20:15:20.253Z,12.40
2017-12-06T20:17:46.865Z,11.80
2017-12-06T20:20:13.477Z,12.90
2017-12-06T20:22:40.094Z,11.37
2017-12-06T20:25:06.705Z,11.57
2017-12-06T20:27:33.325Z,11.30
2017-12-06T20:29:59.944Z,11.67
2017-12-06T20:32:26.564Z,11.47
2017-12-06T20:34:53.181Z,11.20
2017-12-06T20:37:19.789Z,10.87
2017-12-06T20:39:48.309Z,11.23
2017-12-06T20:42:14.942Z,10.67
2017-12-06T20:44:41.573Z,10.37
2017-12-06T20:47:08.177Z,10.80
2017-12-06T20:49:34.805Z,11.37
2017-12-06T20:52:01.413Z,10.87
2017-12-06T20:54:28.021Z,10.63
2017-12-06T20:56:54.654Z,10.47
2017-12-06T20:59:21.257Z,10.20
2017-12-06T21:01:47.871Z,10.30
2017-12-06T21:04:14.499Z,9.47
2017-12-06T21:06:41.109Z,8.90
2017-12-06T21:09:07.713Z,9.20
2017-12-06T21:11:34.328Z,8.80
2017-12-06T21:14:00.941Z,9.63
2017-12-06T21:16:27.545Z,8.83
2017-12-06T21:18:54.166Z,8.60
2017-12-06T21:21:20.809Z,8.80
2017-12-06T21:23:47.405Z,8.40
2017-12-06T21:26:14.037Z,8.83
2017-12-06T21:28:40.637Z,8.30
2017-12-06T21:31:07.242Z,8.50
2017-12-06T21:33:33.852Z,6.90
2017-12-06T21:36:00.461Z,8.00
2017-12-06T21:38:27.065Z,7.67
2017-12-06T21:40:53.702Z,7.53
2017-12-06T21:43:20.298Z,7.87
2017-12-06T21:45:46.984Z,6.80
2017-12-06T21:48:13.587Z,8.03
2017-12-06T21:50:41.178Z,7.07
2017-12-06T21:53:07.781Z,7.00
2017-12-06T21:55:34.389Z,6.63
2017-12-06T21:58:00.990Z,6.27
2017-12-06T22:00:27.593Z,6.63
2017-12-06T22:02:54.495Z,6.70
2017-12-06T22:05:21.121Z,6.20
2017-12-06T22:07:47.734Z,6.30
2017-12-06T22:10:14.350Z,6.20
2017-12-06T22:12:40.954Z,6.50
2017-12-06T22:15:07.561Z,5.97
2017-12-06T22:17:34.172Z,5.80
2017-12-06T22:20:00.765Z,5.67
2017-12-06T22:22:27.766Z,5.50
2017-12-06T22:24:54.372Z,4.80
2017-12-06T22:27:20.965Z,5.60
2017-12-06T22:29:47.564Z,5.10
2017-12-06T22:32:14.198Z,5.10
2017-12-06T22:34:40.801Z,5.30
2017-12-06T22:37:07.397Z,5.33
2017-12-06T22:39:34.034Z,4.90
2017-12-06T22:42:00.626Z,5.10
2017-12-06T22:44:27.233Z,5.07
2017-12-06T22:46:53.853Z,4.80
2017-12-06T22:49:20.454Z,4.67
2017-12-06T22:51:47.060Z,4.37
2017-12-06T22:54:13.681Z,4.20
2017-12-06T22:56:40.287Z,4.27
2017-12-06T22:59:06.889Z,4.40
2017-12-06T23:01:33.497Z,4.10
2017-12-06T23:04:00.089Z,4.93
2017-12-06T23:06:26.689Z,4.30
2017-12-06T23:08:53.302Z,5.30
2017-12-06T23:11:19.900Z,4.57
2017-12-06T23:13:46.501Z,4.50
2017-12-06T23:16:14.045Z,4.47
2017-12-06T23:18:40.657Z,4.30
2017-12-06T23:21:07.258Z,4.43
2017-12-06T23:23:33.881Z,4.10
2017-12-06T23:26:00.485Z,4.07
2017-12-06T23:28:27.086Z,4.70
2017-12-06T23:30:53.705Z,4.10
2017-12-06T23:33:20.300Z,4.70
2017-12-06T23:35:46.897Z,4.60
2017-12-06T23:38:13.511Z,4.70
2017-12-06T23:40:40.261Z,3.90
2017-12-06T23:43:06.867Z,4.10
2017-12-06T23:45:33.485Z,4.10
2017-12-06T23:48:00.085Z,4.10
2017-12-06T23:50:26.680Z,4.40
2017-12-06T23:52:53.290Z,4.33
2017-12-06T23:55:19.889Z,3.93
2017-12-06T23:57:46.493Z,4.27
